sensor_id;sensor_type;location;lat;lon;timestamp;temperature;humidity
26336;DHT22;14047;50.936;4.654;2023-07-16T00:02:16;18.40;99.90
26336;DHT22;14047;50.936;4.654;2023-07-16T00:04:42;18.40;99.90
26336;DHT22;14047;50.936;4.654;2023-07-16T00:07:08;18.50;99.90
26336;DHT22;14047;50.936;4.654;2023-07-16T00:09:34;18.50;99.90
26336;DHT22;14047;50.936;4.654;2023-07-16T00:12:00;18.50;99.90
26336;DHT22;14047;50.936;4.654;2023-07-16T00:14:26;18.40;99.90
26336;DHT22;14047;50.936;4.654;2023-07-16T00:16:52;18.40;99.90
26336;DHT22;14047;50.936;4.654;2023-07-16T00:19:18;18.40;99.90
26336;DHT22;14047;50.936;4.654;2023-07-16T00:21:44;18.50;99.90
26336;DHT22;14047;50.936;4.654;2023-07-16T00:24:09;18.50;99.90
26336;DHT22;14047;50.936;4.654;2023-07-16T00:26:35;18.50;99.90
26336;DHT22;14047;50.936;4.654;2023-07-16T00:29:01;18.50;99.90
26336;DHT22;14047;50.936;4.654;2023-07-16T00:31:27;18.50;99.90
26336;DHT22;14047;50.936;4.654;2023-07-16T00:33:54;18.50;99.90
26336;DHT22;14047;50.936;4.654;2023-07-16T00:36:20;18.50;99.90
26336;DHT22;14047;50.936;4.654;2023-07-16T00:38:46;18.50;99.90
26336;DHT22;14047;50.936;4.654;2023-07-16T00:41:13;18.50;99.90
26336;DHT22;14047;50.936;4.654;2023-07-16T00:43:40;18.40;99.90
26336;DHT22;14047;50.936;4.654;2023-07-16T00:46:07;18.30;99.90
26336;DHT22;14047;50.936;4.654;2023-07-16T00:48:33;18.20;99.90
26336;DHT22;14047;50.936;4.654;2023-07-16T00:51:01;18.20;99.90
26336;DHT22;14047;50.936;4.654;2023-07-16T00:53:28;18.20;99.90
26336;DHT22;14047;50.936;4.654;2023-07-16T00:55:54;18.20;99.90
26336;DHT22;14047;50.936;4.654;2023-07-16T00:58:20;18.20;99.90
26336;DHT22;14047;50.936;4.654;2023-07-16T01:00:47;18.20;99.90
26336;DHT22;14047;50.936;4.654;2023-07-16T01:03:14;18.20;99.90
26336;DHT22;14047;50.936;4.654;2023-07-16T01:06:16;18.10;99.90
26336;DHT22;14047;50.936;4.654;2023-07-16T01:08:52;18.10;99.90
26336;DHT22;14047;50.936;4.654;2023-07-16T01:11:20;18.10;99.90
26336;DHT22;14047;50.936;4.654;2023-07-16T01:13:47;18.00;99.90
26336;DHT22;14047;50.936;4.654;2023-07-16T01:16:22;18.00;99.90
26336;DHT22;14047;50.936;4.654;2023-07-16T01:18:50;17.90;99.90
26336;DHT22;14047;50.936;4.654;2023-07-16T01:21:19;17.60;99.90
26336;DHT22;14047;50.936;4.654;2023-07-16T01:27:04;17.50;99.90
26336;DHT22;14047;50.936;4.654;2023-07-16T01:29:53;17.40;99.90
26336;DHT22;14047;50.936;4.654;2023-07-16T01:32:20;17.30;99.90
26336;DHT22;14047;50.936;4.654;2023-07-16T01:34:47;17.20;99.90
26336;DHT22;14047;50.936;4.654;2023-07-16T01:37:14;17.20;99.90
26336;DHT22;14047;50.936;4.654;2023-07-16T01:39:40;17.00;99.90
26336;DHT22;14047;50.936;4.654;2023-07-16T01:42:06;16.80;99.90
26336;DHT22;14047;50.936;4.654;2023-07-16T01:44:32;16.90;99.90
26336;DHT22;14047;50.936;4.654;2023-07-16T01:47:06;16.80;99.90
26336;DHT22;14047;50.936;4.654;2023-07-16T01:49:33;16.70;99.90
26336;DHT22;14047;50.936;4.654;2023-07-16T01:52:01;16.70;99.90
26336;DHT22;14047;50.936;4.654;2023-07-16T01:54:27;16.70;99.90
26336;DHT22;14047;50.936;4.654;2023-07-16T01:56:54;16.60;99.90
26336;DHT22;14047;50.936;4.654;2023-07-16T01:59:20;16.70;99.90
26336;DHT22;14047;50.936;4.654;2023-07-16T02:01:46;16.70;99.90
26336;DHT22;14047;50.936;4.654;2023-07-16T02:04:12;16.60;99.90
26336;DHT22;14047;50.936;4.654;2023-07-16T02:06:38;16.60;99.90
26336;DHT22;14047;50.936;4.654;2023-07-16T02:09:04;16.60;99.90
26336;DHT22;14047;50.936;4.654;2023-07-16T02:11:30;16.60;99.90
26336;DHT22;14047;50.936;4.654;2023-07-16T02:13:55;16.60;99.90
26336;DHT22;14047;50.936;4.654;2023-07-16T02:16:21;16.50;99.90
26336;DHT22;14047;50.936;4.654;2023-07-16T02:18:47;16.40;99.90
26336;DHT22;14047;50.936;4.654;2023-07-16T02:21:13;16.40;99.90
26336;DHT22;14047;50.936;4.654;2023-07-16T02:23:39;16.40;99.90
26336;DHT22;14047;50.936;4.654;2023-07-16T02:26:05;16.30;99.90
26336;DHT22;14047;50.936;4.654;2023-07-16T02:28:31;16.30;99.90
26336;DHT22;14047;50.936;4.654;2023-07-16T02:30:58;16.30;99.90
26336;DHT22;14047;50.936;4.654;2023-07-16T02:33:24;16.20;99.90
26336;DHT22;14047;50.936;4.654;2023-07-16T02:35:50;16.20;99.90
26336;DHT22;14047;50.936;4.654;2023-07-16T02:38:17;16.10;99.90
26336;DHT22;14047;50.936;4.654;2023-07-16T02:40:44;16.10;99.90
26336;DHT22;14047;50.936;4.654;2023-07-16T02:43:10;16.00;99.90
26336;DHT22;14047;50.936;4.654;2023-07-16T02:45:38;15.90;99.90
26336;DHT22;14047;50.936;4.654;2023-07-16T02:48:05;15.80;99.90
26336;DHT22;14047;50.936;4.654;2023-07-16T02:50:35;15.70;99.90
26336;DHT22;14047;50.936;4.654;2023-07-16T02:53:02;15.60;99.90
26336;DHT22;14047;50.936;4.654;2023-07-16T02:55:28;15.50;99.90
26336;DHT22;14047;50.936;4.654;2023-07-16T02:57:54;15.40;99.90
26336;DHT22;14047;50.936;4.654;2023-07-16T03:00:20;15.30;99.90
26336;DHT22;14047;50.936;4.654;2023-07-16T03:02:46;15.20;99.90
26336;DHT22;14047;50.936;4.654;2023-07-16T03:05:12;15.10;99.90
26336;DHT22;14047;50.936;4.654;2023-07-16T03:07:38;15.10;99.90
26336;DHT22;14047;50.936;4.654;2023-07-16T03:10:04;15.10;99.90
26336;DHT22;14047;50.936;4.654;2023-07-16T03:12:31;15.10;99.90
26336;DHT22;14047;50.936;4.654;2023-07-16T03:14:56;15.20;99.90
26336;DHT22;14047;50.936;4.654;2023-07-16T03:17:22;15.40;99.90
26336;DHT22;14047;50.936;4.654;2023-07-16T03:19:48;15.40;99.90
26336;DHT22;14047;50.936;4.654;2023-07-16T03:22:14;15.40;99.90
26336;DHT22;14047;50.936;4.654;2023-07-16T03:24:40;15.50;99.90
26336;DHT22;14047;50.936;4.654;2023-07-16T03:27:07;15.40;99.90
26336;DHT22;14047;50.936;4.654;2023-07-16T03:29:36;15.40;99.90
26336;DHT22;14047;50.936;4.654;2023-07-16T03:32:02;15.20;99.90
26336;DHT22;14047;50.936;4.654;2023-07-16T03:34:29;15.20;99.90
26336;DHT22;14047;50.936;4.654;2023-07-16T03:36:55;15.20;99.90
26336;DHT22;14047;50.936;4.654;2023-07-16T03:39:21;15.20;99.90
26336;DHT22;14047;50.936;4.654;2023-07-16T03:41:47;15.30;99.90
26336;DHT22;14047;50.936;4.654;2023-07-16T03:44:14;15.30;99.90
26336;DHT22;14047;50.936;4.654;2023-07-16T03:46:40;15.30;99.90
26336;DHT22;14047;50.936;4.654;2023-07-16T03:49:09;15.40;99.90
26336;DHT22;14047;50.936;4.654;2023-07-16T03:51:35;15.50;99.90
26336;DHT22;14047;50.936;4.654;2023-07-16T03:54:01;15.60;99.90
26336;DHT22;14047;50.936;4.654;2023-07-16T03:56:27;15.70;99.90
26336;DHT22;14047;50.936;4.654;2023-07-16T03:58:53;15.60;99.90
26336;DHT22;14047;50.936;4.654;2023-07-16T04:01:19;15.70;99.90
26336;DHT22;14047;50.936;4.654;2023-07-16T04:03:45;15.70;99.90
26336;DHT22;14047;50.936;4.654;2023-07-16T04:06:12;15.80;99.90
26336;DHT22;14047;50.936;4.654;2023-07-16T04:08:38;15.70;99.90
26336;DHT22;14047;50.936;4.654;2023-07-16T04:11:04;15.80;99.90
26336;DHT22;14047;50.936;4.654;2023-07-16T04:13:31;15.80;99.90
26336;DHT22;14047;50.936;4.654;2023-07-16T04:15:57;15.80;99.90
26336;DHT22;14047;50.936;4.654;2023-07-16T04:18:24;15.80;99.90
26336;DHT22;14047;50.936;4.654;2023-07-16T04:20:50;15.80;99.90
26336;DHT22;14047;50.936;4.654;2023-07-16T04:23:16;15.90;99.90
26336;DHT22;14047;50.936;4.654;2023-07-16T04:25:43;15.80;99.90
26336;DHT22;14047;50.936;4.654;2023-07-16T04:28:10;15.80;99.90
26336;DHT22;14047;50.936;4.654;2023-07-16T04:30:37;15.90;99.90
26336;DHT22;14047;50.936;4.654;2023-07-16T04:33:03;16.00;99.90
26336;DHT22;14047;50.936;4.654;2023-07-16T04:35:29;16.00;99.90
26336;DHT22;14047;50.936;4.654;2023-07-16T04:37:55;16.20;99.90
26336;DHT22;14047;50.936;4.654;2023-07-16T04:40:21;16.40;99.90
26336;DHT22;14047;50.936;4.654;2023-07-16T04:42:47;16.50;99.90
26336;DHT22;14047;50.936;4.654;2023-07-16T04:45:14;16.60;99.90
26336;DHT22;14047;50.936;4.654;2023-07-16T04:47:39;16.40;99.90
26336;DHT22;14047;50.936;4.654;2023-07-16T04:50:06;16.30;99.90
26336;DHT22;14047;50.936;4.654;2023-07-16T04:52:32;16.40;99.90
26336;DHT22;14047;50.936;4.654;2023-07-16T04:54:58;16.40;99.90
26336;DHT22;14047;50.936;4.654;2023-07-16T04:57:24;16.30;99.90
26336;DHT22;14047;50.936;4.654;2023-07-16T04:59:49;16.30;99.90
26336;DHT22;14047;50.936;4.654;2023-07-16T05:02:15;16.10;99.90
26336;DHT22;14047;50.936;4.654;2023-07-16T05:04:42;16.10;99.90
26336;DHT22;14047;50.936;4.654;2023-07-16T05:07:10;16.10;99.90
26336;DHT22;14047;50.936;4.654;2023-07-16T05:09:36;16.20;99.90
26336;DHT22;14047;50.936;4.654;2023-07-16T05:12:02;16.20;99.90
26336;DHT22;14047;50.936;4.654;2023-07-16T05:14:28;16.30;99.90
26336;DHT22;14047;50.936;4.654;2023-07-16T05:16:55;16.20;99.90
26336;DHT22;14047;50.936;4.654;2023-07-16T05:19:22;16.30;99.90
26336;DHT22;14047;50.936;4.654;2023-07-16T05:21:48;16.30;99.90
26336;DHT22;14047;50.936;4.654;2023-07-16T05:24:14;16.30;99.90
26336;DHT22;14047;50.936;4.654;2023-07-16T05:26:39;16.30;99.90
26336;DHT22;14047;50.936;4.654;2023-07-16T05:29:05;16.50;99.90
26336;DHT22;14047;50.936;4.654;2023-07-16T05:31:31;16.60;99.90
26336;DHT22;14047;50.936;4.654;2023-07-16T05:33:57;16.70;99.90
26336;DHT22;14047;50.936;4.654;2023-07-16T05:36:23;16.70;99.90
26336;DHT22;14047;50.936;4.654;2023-07-16T05:38:49;16.70;99.90
26336;DHT22;14047;50.936;4.654;2023-07-16T05:41:16;16.80;99.90
26336;DHT22;14047;50.936;4.654;2023-07-16T05:43:42;16.90;99.90
26336;DHT22;14047;50.936;4.654;2023-07-16T05:46:07;17.10;99.90
26336;DHT22;14047;50.936;4.654;2023-07-16T05:48:33;17.20;99.90
26336;DHT22;14047;50.936;4.654;2023-07-16T05:50:59;17.20;99.90
26336;DHT22;14047;50.936;4.654;2023-07-16T05:53:25;17.40;99.90
26336;DHT22;14047;50.936;4.654;2023-07-16T05:55:51;17.40;99.90
26336;DHT22;14047;50.936;4.654;2023-07-16T05:58:17;17.40;99.90
26336;DHT22;14047;50.936;4.654;2023-07-16T06:00:43;17.30;99.90
26336;DHT22;14047;50.936;4.654;2023-07-16T06:03:09;17.40;99.90
26336;DHT22;14047;50.936;4.654;2023-07-16T06:05:35;17.30;99.90
26336;DHT22;14047;50.936;4.654;2023-07-16T06:08:02;17.30;99.90
26336;DHT22;14047;50.936;4.654;2023-07-16T06:10:28;17.20;99.90
26336;DHT22;14047;50.936;4.654;2023-07-16T06:12:54;17.30;99.90
26336;DHT22;14047;50.936;4.654;2023-07-16T06:15:20;17.50;99.90
26336;DHT22;14047;50.936;4.654;2023-07-16T06:17:46;17.40;99.90
26336;DHT22;14047;50.936;4.654;2023-07-16T06:20:12;17.40;99.90
26336;DHT22;14047;50.936;4.654;2023-07-16T06:22:38;17.40;99.90
26336;DHT22;14047;50.936;4.654;2023-07-16T06:25:04;17.50;99.90
26336;DHT22;14047;50.936;4.654;2023-07-16T06:27:30;17.40;99.90
26336;DHT22;14047;50.936;4.654;2023-07-16T06:29:56;17.40;99.90
26336;DHT22;14047;50.936;4.654;2023-07-16T06:32:22;17.50;99.90
26336;DHT22;14047;50.936;4.654;2023-07-16T06:34:48;17.60;99.90
26336;DHT22;14047;50.936;4.654;2023-07-16T06:37:14;17.50;99.90
26336;DHT22;14047;50.936;4.654;2023-07-16T06:39:40;17.50;99.90
26336;DHT22;14047;50.936;4.654;2023-07-16T06:42:06;17.60;99.90
26336;DHT22;14047;50.936;4.654;2023-07-16T06:44:32;17.60;99.90
26336;DHT22;14047;50.936;4.654;2023-07-16T06:46:58;17.60;99.90
26336;DHT22;14047;50.936;4.654;2023-07-16T06:49:24;17.70;99.90
26336;DHT22;14047;50.936;4.654;2023-07-16T06:51:50;18.00;99.90
26336;DHT22;14047;50.936;4.654;2023-07-16T06:54:16;18.20;99.90
26336;DHT22;14047;50.936;4.654;2023-07-16T06:56:42;18.00;99.90
26336;DHT22;14047;50.936;4.654;2023-07-16T06:59:08;18.00;99.90
26336;DHT22;14047;50.936;4.654;2023-07-16T07:01:33;18.10;99.90
26336;DHT22;14047;50.936;4.654;2023-07-16T07:03:59;18.20;99.90
26336;DHT22;14047;50.936;4.654;2023-07-16T07:06:25;18.30;99.90
26336;DHT22;14047;50.936;4.654;2023-07-16T07:08:51;18.40;99.90
26336;DHT22;14047;50.936;4.654;2023-07-16T07:11:17;18.40;99.90
26336;DHT22;14047;50.936;4.654;2023-07-16T07:13:43;18.20;99.90
26336;DHT22;14047;50.936;4.654;2023-07-16T07:16:09;18.30;99.90
26336;DHT22;14047;50.936;4.654;2023-07-16T07:18:35;18.40;99.90
26336;DHT22;14047;50.936;4.654;2023-07-16T07:21:01;18.40;99.90
26336;DHT22;14047;50.936;4.654;2023-07-16T07:23:27;18.50;99.90
26336;DHT22;14047;50.936;4.654;2023-07-16T07:25:53;18.60;99.90
26336;DHT22;14047;50.936;4.654;2023-07-16T07:28:19;18.60;99.90
26336;DHT22;14047;50.936;4.654;2023-07-16T07:30:45;18.60;99.90
26336;DHT22;14047;50.936;4.654;2023-07-16T07:33:12;18.70;99.90
26336;DHT22;14047;50.936;4.654;2023-07-16T07:35:38;18.70;99.90
26336;DHT22;14047;50.936;4.654;2023-07-16T07:38:04;18.90;99.90
26336;DHT22;14047;50.936;4.654;2023-07-16T07:40:30;19.00;99.90
26336;DHT22;14047;50.936;4.654;2023-07-16T07:42:55;19.00;99.90
26336;DHT22;14047;50.936;4.654;2023-07-16T07:45:22;18.90;99.90
26336;DHT22;14047;50.936;4.654;2023-07-16T07:47:48;19.10;99.90
26336;DHT22;14047;50.936;4.654;2023-07-16T07:50:14;19.20;99.90
26336;DHT22;14047;50.936;4.654;2023-07-16T07:52:40;19.40;99.90
26336;DHT22;14047;50.936;4.654;2023-07-16T07:55:07;19.40;99.90
26336;DHT22;14047;50.936;4.654;2023-07-16T07:57:33;19.30;99.90
26336;DHT22;14047;50.936;4.654;2023-07-16T07:59:58;19.40;99.90
26336;DHT22;14047;50.936;4.654;2023-07-16T08:02:25;19.40;99.90
26336;DHT22;14047;50.936;4.654;2023-07-16T08:04:52;19.40;99.90
26336;DHT22;14047;50.936;4.654;2023-07-16T08:07:18;19.50;99.90
26336;DHT22;14047;50.936;4.654;2023-07-16T08:09:44;19.60;99.90
26336;DHT22;14047;50.936;4.654;2023-07-16T08:12:10;19.80;99.90
26336;DHT22;14047;50.936;4.654;2023-07-16T08:14:36;20.00;99.90
26336;DHT22;14047;50.936;4.654;2023-07-16T08:17:02;20.40;99.90
26336;DHT22;14047;50.936;4.654;2023-07-16T08:19:28;20.70;99.90
26336;DHT22;14047;50.936;4.654;2023-07-16T08:21:54;20.80;99.90
26336;DHT22;14047;50.936;4.654;2023-07-16T08:24:20;20.40;99.90
26336;DHT22;14047;50.936;4.654;2023-07-16T08:26:46;20.50;99.90
26336;DHT22;14047;50.936;4.654;2023-07-16T08:29:12;20.30;99.90
26336;DHT22;14047;50.936;4.654;2023-07-16T08:31:38;20.30;99.90
26336;DHT22;14047;50.936;4.654;2023-07-16T08:34:03;20.40;99.90
26336;DHT22;14047;50.936;4.654;2023-07-16T08:36:30;20.80;99.90
26336;DHT22;14047;50.936;4.654;2023-07-16T08:38:56;21.00;99.90
26336;DHT22;14047;50.936;4.654;2023-07-16T08:41:22;21.10;99.90
26336;DHT22;14047;50.936;4.654;2023-07-16T08:43:48;20.80;99.90
26336;DHT22;14047;50.936;4.654;2023-07-16T08:46:15;20.60;99.90
26336;DHT22;14047;50.936;4.654;2023-07-16T08:48:42;20.60;99.90
26336;DHT22;14047;50.936;4.654;2023-07-16T08:51:09;20.60;99.90
26336;DHT22;14047;50.936;4.654;2023-07-16T08:53:37;20.80;99.90
26336;DHT22;14047;50.936;4.654;2023-07-16T08:56:03;21.00;99.90
26336;DHT22;14047;50.936;4.654;2023-07-16T08:58:31;21.30;99.90
26336;DHT22;14047;50.936;4.654;2023-07-16T09:00:57;21.40;99.90
26336;DHT22;14047;50.936;4.654;2023-07-16T09:03:24;21.40;99.90
26336;DHT22;14047;50.936;4.654;2023-07-16T09:05:49;21.30;99.90
26336;DHT22;14047;50.936;4.654;2023-07-16T09:08:16;21.30;99.90
26336;DHT22;14047;50.936;4.654;2023-07-16T09:10:42;21.40;99.90
26336;DHT22;14047;50.936;4.654;2023-07-16T09:13:09;21.70;99.90
26336;DHT22;14047;50.936;4.654;2023-07-16T09:15:35;22.00;99.90
26336;DHT22;14047;50.936;4.654;2023-07-16T09:18:01;22.30;99.90
26336;DHT22;14047;50.936;4.654;2023-07-16T09:20:28;22.60;99.90
26336;DHT22;14047;50.936;4.654;2023-07-16T09:22:57;22.70;99.90
26336;DHT22;14047;50.936;4.654;2023-07-16T09:25:29;22.30;99.90
26336;DHT22;14047;50.936;4.654;2023-07-16T09:27:58;22.50;99.90
26336;DHT22;14047;50.936;4.654;2023-07-16T09:30:33;22.80;99.90
26336;DHT22;14047;50.936;4.654;2023-07-16T09:33:19;22.90;99.90
26336;DHT22;14047;50.936;4.654;2023-07-16T09:35:50;22.70;99.90
26336;DHT22;14047;50.936;4.654;2023-07-16T09:38:17;23.00;99.90
26336;DHT22;14047;50.936;4.654;2023-07-16T09:40:43;22.90;99.90
26336;DHT22;14047;50.936;4.654;2023-07-16T09:43:10;22.30;99.90
26336;DHT22;14047;50.936;4.654;2023-07-16T09:45:37;22.10;99.90
26336;DHT22;14047;50.936;4.654;2023-07-16T09:48:04;22.00;99.90
26336;DHT22;14047;50.936;4.654;2023-07-16T09:50:33;22.00;99.90
26336;DHT22;14047;50.936;4.654;2023-07-16T09:52:59;22.10;99.90
26336;DHT22;14047;50.936;4.654;2023-07-16T09:55:26;22.40;99.90
26336;DHT22;14047;50.936;4.654;2023-07-16T09:57:56;22.60;99.90
26336;DHT22;14047;50.936;4.654;2023-07-16T10:00:23;22.90;99.90
26336;DHT22;14047;50.936;4.654;2023-07-16T10:02:51;23.00;99.90
26336;DHT22;14047;50.936;4.654;2023-07-16T10:05:25;22.90;99.90
26336;DHT22;14047;50.936;4.654;2023-07-16T10:07:53;22.90;99.90
26336;DHT22;14047;50.936;4.654;2023-07-16T10:10:20;23.00;99.90
26336;DHT22;14047;50.936;4.654;2023-07-16T10:13:01;23.30;99.90
26336;DHT22;14047;50.936;4.654;2023-07-16T10:15:29;23.00;99.90
26336;DHT22;14047;50.936;4.654;2023-07-16T10:17:55;23.30;99.90
26336;DHT22;14047;50.936;4.654;2023-07-16T10:20:29;23.10;99.90
26336;DHT22;14047;50.936;4.654;2023-07-16T10:22:55;22.90;99.90
26336;DHT22;14047;50.936;4.654;2023-07-16T10:25:24;22.50;99.90
26336;DHT22;14047;50.936;4.654;2023-07-16T10:27:52;22.10;99.90
26336;DHT22;14047;50.936;4.654;2023-07-16T10:30:18;21.90;99.90
26336;DHT22;14047;50.936;4.654;2023-07-16T10:32:45;21.50;99.90
26336;DHT22;14047;50.936;4.654;2023-07-16T10:35:12;21.40;99.90
26336;DHT22;14047;50.936;4.654;2023-07-16T10:37:39;21.50;99.90
26336;DHT22;14047;50.936;4.654;2023-07-16T10:40:10;21.30;99.90
26336;DHT22;14047;50.936;4.654;2023-07-16T10:42:36;21.20;99.90
26336;DHT22;14047;50.936;4.654;2023-07-16T10:45:04;21.10;99.90
26336;DHT22;14047;50.936;4.654;2023-07-16T10:47:36;21.20;99.90
26336;DHT22;14047;50.936;4.654;2023-07-16T10:50:07;21.20;99.90
26336;DHT22;14047;50.936;4.654;2023-07-16T10:52:35;21.50;99.90
26336;DHT22;14047;50.936;4.654;2023-07-16T10:55:01;21.60;99.90
26336;DHT22;14047;50.936;4.654;2023-07-16T10:57:28;21.60;99.90
26336;DHT22;14047;50.936;4.654;2023-07-16T10:59:56;21.50;99.90
26336;DHT22;14047;50.936;4.654;2023-07-16T11:02:23;21.50;99.90
26336;DHT22;14047;50.936;4.654;2023-07-16T11:04:50;21.50;99.90
26336;DHT22;14047;50.936;4.654;2023-07-16T11:07:19;21.60;99.90
26336;DHT22;14047;50.936;4.654;2023-07-16T11:09:48;21.60;99.90
26336;DHT22;14047;50.936;4.654;2023-07-16T11:12:16;21.80;99.90
26336;DHT22;14047;50.936;4.654;2023-07-16T11:14:44;22.40;99.90
26336;DHT22;14047;50.936;4.654;2023-07-16T11:17:11;22.80;99.90
26336;DHT22;14047;50.936;4.654;2023-07-16T11:19:38;23.20;99.90
26336;DHT22;14047;50.936;4.654;2023-07-16T11:22:07;23.40;99.90
26336;DHT22;14047;50.936;4.654;2023-07-16T11:24:40;23.50;99.90
26336;DHT22;14047;50.936;4.654;2023-07-16T11:27:16;23.70;99.90
26336;DHT22;14047;50.936;4.654;2023-07-16T11:29:51;23.90;99.90
26336;DHT22;14047;50.936;4.654;2023-07-16T11:32:30;23.80;99.90
26336;DHT22;14047;50.936;4.654;2023-07-16T11:34:58;24.00;99.90
26336;DHT22;14047;50.936;4.654;2023-07-16T11:37:25;23.60;99.90
26336;DHT22;14047;50.936;4.654;2023-07-16T11:40:06;23.40;99.90
26336;DHT22;14047;50.936;4.654;2023-07-16T11:42:37;23.40;99.90
26336;DHT22;14047;50.936;4.654;2023-07-16T11:45:14;22.80;99.90
26336;DHT22;14047;50.936;4.654;2023-07-16T11:47:40;22.40;99.90
26336;DHT22;14047;50.936;4.654;2023-07-16T11:50:07;22.40;99.90
26336;DHT22;14047;50.936;4.654;2023-07-16T11:52:33;22.50;99.90
26336;DHT22;14047;50.936;4.654;2023-07-16T11:54:59;22.50;99.90
26336;DHT22;14047;50.936;4.654;2023-07-16T11:57:26;22.70;99.90
26336;DHT22;14047;50.936;4.654;2023-07-16T11:59:52;22.90;99.90
26336;DHT22;14047;50.936;4.654;2023-07-16T12:02:20;23.00;99.90
26336;DHT22;14047;50.936;4.654;2023-07-16T12:04:47;23.20;99.90
26336;DHT22;14047;50.936;4.654;2023-07-16T12:07:13;23.30;99.90
26336;DHT22;14047;50.936;4.654;2023-07-16T12:09:39;23.20;99.90
26336;DHT22;14047;50.936;4.654;2023-07-16T12:12:06;22.90;99.90
26336;DHT22;14047;50.936;4.654;2023-07-16T12:14:32;22.80;99.90
26336;DHT22;14047;50.936;4.654;2023-07-16T12:16:58;22.80;99.90
26336;DHT22;14047;50.936;4.654;2023-07-16T12:19:24;22.60;99.90
26336;DHT22;14047;50.936;4.654;2023-07-16T12:21:50;22.50;99.90
26336;DHT22;14047;50.936;4.654;2023-07-16T12:24:16;22.60;99.90
26336;DHT22;14047;50.936;4.654;2023-07-16T12:26:43;22.70;99.90
26336;DHT22;14047;50.936;4.654;2023-07-16T12:29:08;22.90;99.90
26336;DHT22;14047;50.936;4.654;2023-07-16T12:31:34;23.20;99.90
26336;DHT22;14047;50.936;4.654;2023-07-16T12:34:01;23.60;99.90
26336;DHT22;14047;50.936;4.654;2023-07-16T12:36:30;24.40;99.90
26336;DHT22;14047;50.936;4.654;2023-07-16T12:38:56;25.00;99.90
26336;DHT22;14047;50.936;4.654;2023-07-16T12:41:22;25.50;99.90
26336;DHT22;14047;50.936;4.654;2023-07-16T12:43:48;25.90;99.90
26336;DHT22;14047;50.936;4.654;2023-07-16T12:46:14;26.10;99.90
26336;DHT22;14047;50.936;4.654;2023-07-16T12:48:40;26.40;99.90
26336;DHT22;14047;50.936;4.654;2023-07-16T12:51:06;26.40;99.90
26336;DHT22;14047;50.936;4.654;2023-07-16T12:53:33;25.80;99.90
26336;DHT22;14047;50.936;4.654;2023-07-16T12:55:59;25.60;99.90
26336;DHT22;14047;50.936;4.654;2023-07-16T12:58:25;26.00;99.90
26336;DHT22;14047;50.936;4.654;2023-07-16T13:00:51;25.70;99.90
26336;DHT22;14047;50.936;4.654;2023-07-16T13:03:17;25.40;99.90
26336;DHT22;14047;50.936;4.654;2023-07-16T13:05:44;25.20;99.90
26336;DHT22;14047;50.936;4.654;2023-07-16T13:08:10;25.10;99.90
26336;DHT22;14047;50.936;4.654;2023-07-16T13:10:36;24.90;99.90
26336;DHT22;14047;50.936;4.654;2023-07-16T13:13:02;25.10;99.90
26336;DHT22;14047;50.936;4.654;2023-07-16T13:15:29;25.50;99.90
26336;DHT22;14047;50.936;4.654;2023-07-16T13:17:55;25.50;99.90
26336;DHT22;14047;50.936;4.654;2023-07-16T13:20:21;25.10;99.90
26336;DHT22;14047;50.936;4.654;2023-07-16T13:22:48;24.90;99.90
26336;DHT22;14047;50.936;4.654;2023-07-16T13:25:14;25.00;99.90
26336;DHT22;14047;50.936;4.654;2023-07-16T13:27:40;24.80;99.90
26336;DHT22;14047;50.936;4.654;2023-07-16T13:30:06;24.80;99.90
26336;DHT22;14047;50.936;4.654;2023-07-16T13:32:32;24.80;99.90
26336;DHT22;14047;50.936;4.654;2023-07-16T13:34:59;24.90;99.90
26336;DHT22;14047;50.936;4.654;2023-07-16T13:37:25;24.80;99.90
26336;DHT22;14047;50.936;4.654;2023-07-16T13:39:50;25.00;99.90
26336;DHT22;14047;50.936;4.654;2023-07-16T13:42:16;25.20;99.90
26336;DHT22;14047;50.936;4.654;2023-07-16T13:44:42;25.50;99.90
26336;DHT22;14047;50.936;4.654;2023-07-16T13:47:08;25.50;99.90
26336;DHT22;14047;50.936;4.654;2023-07-16T13:49:34;25.40;99.90
26336;DHT22;14047;50.936;4.654;2023-07-16T13:52:00;24.90;99.90
26336;DHT22;14047;50.936;4.654;2023-07-16T13:54:26;24.80;99.90
26336;DHT22;14047;50.936;4.654;2023-07-16T13:56:52;24.40;99.90
26336;DHT22;14047;50.936;4.654;2023-07-16T13:59:18;23.90;99.90
26336;DHT22;14047;50.936;4.654;2023-07-16T14:01:44;23.30;99.90
26336;DHT22;14047;50.936;4.654;2023-07-16T14:04:09;23.10;99.90
26336;DHT22;14047;50.936;4.654;2023-07-16T14:06:36;23.20;99.90
26336;DHT22;14047;50.936;4.654;2023-07-16T14:09:02;23.40;99.90
26336;DHT22;14047;50.936;4.654;2023-07-16T14:11:30;23.40;99.90
26336;DHT22;14047;50.936;4.654;2023-07-16T14:13:56;23.30;99.90
26336;DHT22;14047;50.936;4.654;2023-07-16T14:16:22;23.20;99.90
26336;DHT22;14047;50.936;4.654;2023-07-16T14:18:52;23.40;99.90
26336;DHT22;14047;50.936;4.654;2023-07-16T14:21:20;23.60;99.90
26336;DHT22;14047;50.936;4.654;2023-07-16T14:23:46;23.80;99.90
26336;DHT22;14047;50.936;4.654;2023-07-16T14:26:12;23.90;99.90
26336;DHT22;14047;50.936;4.654;2023-07-16T14:28:38;24.20;99.90
26336;DHT22;14047;50.936;4.654;2023-07-16T14:31:04;24.60;99.90
26336;DHT22;14047;50.936;4.654;2023-07-16T14:33:30;25.00;99.90
26336;DHT22;14047;50.936;4.654;2023-07-16T14:35:57;25.30;99.90
26336;DHT22;14047;50.936;4.654;2023-07-16T14:38:23;25.40;99.90
26336;DHT22;14047;50.936;4.654;2023-07-16T14:40:49;25.30;99.90
26336;DHT22;14047;50.936;4.654;2023-07-16T14:43:18;25.30;99.90
26336;DHT22;14047;50.936;4.654;2023-07-16T14:45:44;25.50;99.90
26336;DHT22;14047;50.936;4.654;2023-07-16T14:48:10;25.30;99.90
26336;DHT22;14047;50.936;4.654;2023-07-16T14:50:35;25.10;99.90
26336;DHT22;14047;50.936;4.654;2023-07-16T14:53:02;24.90;99.90
26336;DHT22;14047;50.936;4.654;2023-07-16T14:55:27;24.90;99.90
26336;DHT22;14047;50.936;4.654;2023-07-16T14:57:54;25.20;99.90
26336;DHT22;14047;50.936;4.654;2023-07-16T15:00:20;25.50;99.90
26336;DHT22;14047;50.936;4.654;2023-07-16T15:02:46;25.70;99.90
26336;DHT22;14047;50.936;4.654;2023-07-16T15:05:11;25.80;99.90
26336;DHT22;14047;50.936;4.654;2023-07-16T15:07:38;25.60;99.90
26336;DHT22;14047;50.936;4.654;2023-07-16T15:10:04;25.40;99.90
26336;DHT22;14047;50.936;4.654;2023-07-16T15:12:31;26.00;99.90
26336;DHT22;14047;50.936;4.654;2023-07-16T15:14:57;26.20;99.90
26336;DHT22;14047;50.936;4.654;2023-07-16T15:17:23;26.20;99.90
26336;DHT22;14047;50.936;4.654;2023-07-16T15:19:51;25.80;99.90
26336;DHT22;14047;50.936;4.654;2023-07-16T15:22:17;25.00;99.90
26336;DHT22;14047;50.936;4.654;2023-07-16T15:24:45;24.70;99.90
26336;DHT22;14047;50.936;4.654;2023-07-16T15:27:11;24.70;99.90
26336;DHT22;14047;50.936;4.654;2023-07-16T15:29:36;24.80;99.90
26336;DHT22;14047;50.936;4.654;2023-07-16T15:32:02;24.80;99.90